createdAt,value
2018-10-17T00:00:18.179Z,16.00
2018-10-17T00:02:48.088Z,12.80
2018-10-17T00:05:17.677Z,13.73
2018-10-17T00:07:47.404Z,16.35
2018-10-17T00:10:17.328Z,15.03
2018-10-17T00:12:46.977Z,16.73
2018-10-17T00:15:16.603Z,14.43
2018-10-17T00:17:46.209Z,20.67
2018-10-17T00:20:15.758Z,13.87
2018-10-17T00:22:45.403Z,16.48
2018-10-17T00:25:15.200Z,13.13
2018-10-17T00:27:44.562Z,13.62
2018-10-17T00:30:14.579Z,13.33
2018-10-17T00:32:44.168Z,14.13
2018-10-17T00:35:13.724Z,14.07
2018-10-17T00:37:43.242Z,12.80
2018-10-17T00:40:12.926Z,15.10
2018-10-17T00:42:42.454Z,13.73
2018-10-17T00:45:11.737Z,18.70
2018-10-17T00:47:41.356Z,16.07
2018-10-17T00:50:11.057Z,14.40
2018-10-17T00:52:40.584Z,15.18
2018-10-17T00:55:10.261Z,14.40
2018-10-17T00:57:39.694Z,16.47
2018-10-17T01:00:09.362Z,14.28
2018-10-17T01:02:38.992Z,13.27
2018-10-17T01:05:08.747Z,13.07
2018-10-17T01:07:38.243Z,14.30
2018-10-17T01:10:07.858Z,16.13
2018-10-17T01:12:37.412Z,16.23
2018-10-17T01:15:07.129Z,14.53
2018-10-17T01:17:36.849Z,15.57
2018-10-17T01:20:08.495Z,12.83
2018-10-17T01:22:38.621Z,12.30
2018-10-17T01:25:08.711Z,12.33
2018-10-17T01:27:38.238Z,12.37
2018-10-17T01:30:08.540Z,15.23
2018-10-17T01:32:38.100Z,19.07
2018-10-17T01:35:08.312Z,12.37
2018-10-17T01:37:37.860Z,17.40
2018-10-17T01:40:08.873Z,14.50
2018-10-17T01:42:38.530Z,14.90
2018-10-17T01:45:09.449Z,13.47
2018-10-17T01:47:38.948Z,13.30
2018-10-17T01:50:09.465Z,14.50
2018-10-17T01:52:38.984Z,14.20
2018-10-17T01:55:08.902Z,13.03
2018-10-17T01:57:38.545Z,16.50
2018-10-17T02:00:08.544Z,14.60
2018-10-17T02:02:38.089Z,13.07
2018-10-17T02:05:07.818Z,11.80
2018-10-17T02:07:37.433Z,14.28
2018-10-17T02:10:07.053Z,22.00
2018-10-17T02:12:36.699Z,30.08
2018-10-17T02:15:06.812Z,15.88
2018-10-17T02:17:36.423Z,12.73
2018-10-17T02:20:06.540Z,11.73
2018-10-17T02:22:36.257Z,12.00
2018-10-17T02:25:07.200Z,12.68
2018-10-17T02:27:37.625Z,11.57
2018-10-17T02:30:08.458Z,12.83
2018-10-17T02:32:38.163Z,15.13
2018-10-17T02:35:13.247Z,14.30
2018-10-17T02:37:49.427Z,12.90
2018-10-17T02:40:18.970Z,14.47
2018-10-17T02:42:48.621Z,12.23
2018-10-17T02:45:18.305Z,11.47
2018-10-17T02:47:47.863Z,12.00
2018-10-17T02:50:18.364Z,16.23
2018-10-17T02:52:47.888Z,12.23
2018-10-17T02:55:17.759Z,12.03
2018-10-17T02:57:47.550Z,12.83
2018-10-17T03:00:17.128Z,15.00
2018-10-17T03:02:47.104Z,11.73
2018-10-17T03:05:16.895Z,12.40
2018-10-17T03:07:46.379Z,12.20
2018-10-17T03:10:15.928Z,15.80
2018-10-17T03:12:45.629Z,12.25
2018-10-17T03:15:15.331Z,14.00
2018-10-17T03:17:45.020Z,12.43
2018-10-17T03:20:14.888Z,17.85
2018-10-17T03:22:44.475Z,13.18
2018-10-17T03:25:14.399Z,13.80
2018-10-17T03:27:44.216Z,14.93
2018-10-17T03:30:13.799Z,13.08
2018-10-17T03:32:43.413Z,15.90
2018-10-17T03:35:13.047Z,15.13
2018-10-17T03:37:42.550Z,14.13
2018-10-17T03:40:12.171Z,12.58
2018-10-17T03:42:42.740Z,13.10
2018-10-17T03:45:12.329Z,15.53
2018-10-17T03:47:41.907Z,13.07
2018-10-17T03:50:11.651Z,15.40
2018-10-17T03:52:41.274Z,15.10
2018-10-17T03:55:10.901Z,14.80
2018-10-17T03:57:40.594Z,12.00
2018-10-17T04:00:10.149Z,12.57
2018-10-17T04:02:39.863Z,13.60
2018-10-17T04:05:09.507Z,12.33
2018-10-17T04:07:39.237Z,14.87
2018-10-17T04:10:08.940Z,11.38
2018-10-17T04:12:38.629Z,14.40
2018-10-17T04:15:08.525Z,13.17
2018-10-17T04:17:38.460Z,15.77
2018-10-17T04:20:08.089Z,15.70
2018-10-17T04:22:37.678Z,16.02
2018-10-17T04:25:07.546Z,14.63
2018-10-17T04:27:37.126Z,16.77
2018-10-17T04:30:07.735Z,13.43
2018-10-17T04:32:37.533Z,17.10
2018-10-17T04:35:07.877Z,12.13
2018-10-17T04:37:37.865Z,18.77
2018-10-17T04:45:07.373Z,17.20
2018-10-17T04:47:37.053Z,12.03
2018-10-17T04:50:08.706Z,16.63
2018-10-17T04:52:38.475Z,15.50
2018-10-17T04:55:09.210Z,13.60
2018-10-17T04:57:39.183Z,13.73
2018-10-17T05:00:11.998Z,12.50
2018-10-17T05:02:43.034Z,15.10
2018-10-17T05:05:13.294Z,15.60
2018-10-17T05:07:43.163Z,13.27
2018-10-17T05:10:12.805Z,12.03
2018-10-17T05:12:42.441Z,14.90
2018-10-17T05:15:12.150Z,17.42
2018-10-17T05:17:41.873Z,14.28
2018-10-17T05:20:11.695Z,12.73
2018-10-17T05:22:41.380Z,16.13
2018-10-17T05:25:11.129Z,13.80
2018-10-17T05:27:40.614Z,15.17
2018-10-17T05:30:10.445Z,17.15
2018-10-17T05:32:40.358Z,14.87
2018-10-17T05:35:09.950Z,13.53
2018-10-17T05:37:39.748Z,15.17
2018-10-17T05:40:09.448Z,12.07
2018-10-17T05:42:39.188Z,17.73
2018-10-17T05:45:09.285Z,15.57
2018-10-17T05:47:39.201Z,23.63
2018-10-17T05:50:09.300Z,29.43
2018-10-17T05:52:38.912Z,23.10
2018-10-17T05:55:08.766Z,25.13
2018-10-17T05:57:38.217Z,17.53
2018-10-17T06:00:08.950Z,26.57
2018-10-17T06:02:39.297Z,22.90
2018-10-17T06:05:09.927Z,42.67
2018-10-17T06:07:39.503Z,17.23
2018-10-17T06:10:10.442Z,21.20
2018-10-17T06:12:40.048Z,17.40
2018-10-17T06:15:09.734Z,16.03
2018-10-17T06:17:39.242Z,17.87
2018-10-17T06:20:09.236Z,14.97
2018-10-17T06:22:38.780Z,18.20
2018-10-17T06:25:09.028Z,15.87
2018-10-17T06:27:38.575Z,13.83
2018-10-17T06:30:10.064Z,19.10
2018-10-17T06:32:40.690Z,18.20
2018-10-17T06:35:10.680Z,12.70
2018-10-17T06:37:40.202Z,16.85
2018-10-17T06:40:10.551Z,15.58
2018-10-17T06:42:40.178Z,16.00
2018-10-17T06:45:10.411Z,23.00
2018-10-17T06:47:40.141Z,21.17
2018-10-17T06:50:10.259Z,22.43
2018-10-17T06:52:39.815Z,27.23
2018-10-17T06:55:10.576Z,18.30
2018-10-17T06:57:40.175Z,18.13
2018-10-17T07:00:10.971Z,19.77
2018-10-17T07:02:40.719Z,22.17
2018-10-17T07:05:11.400Z,23.57
2018-10-17T07:07:41.374Z,16.73
2018-10-17T07:10:10.986Z,19.83
2018-10-17T07:12:40.845Z,18.27
2018-10-17T07:15:17.057Z,19.77
2018-10-17T07:17:46.739Z,24.90
2018-10-17T07:20:16.693Z,23.43
2018-10-17T07:22:46.325Z,29.80
2018-10-17T07:25:16.013Z,38.10
2018-10-17T07:27:45.787Z,47.87
2018-10-17T07:30:15.440Z,25.77
2018-10-17T07:32:45.159Z,23.87
2018-10-17T07:35:14.971Z,26.60
2018-10-17T07:37:44.653Z,28.37
2018-10-17T07:40:14.227Z,35.67
2018-10-17T07:42:43.842Z,22.17
2018-10-17T07:45:13.442Z,28.87
2018-10-17T07:47:43.231Z,28.67
2018-10-17T07:50:13.240Z,40.60
2018-10-17T07:52:42.872Z,25.77
2018-10-17T07:55:12.946Z,26.63
2018-10-17T07:57:42.708Z,38.23
2018-10-17T08:00:14.125Z,35.87
2018-10-17T08:02:43.688Z,29.90
2018-10-17T08:05:14.443Z,23.10
2018-10-17T08:07:44.056Z,23.73
2018-10-17T08:10:13.635Z,33.90
2018-10-17T08:12:43.162Z,26.63
2018-10-17T08:15:12.712Z,26.00
2018-10-17T08:17:42.245Z,27.63
2018-10-17T08:20:12.904Z,24.90
2018-10-17T08:22:42.505Z,21.93
2018-10-17T08:25:13.270Z,25.97
2018-10-17T08:27:43.556Z,25.43
2018-10-17T08:30:13.309Z,15.20
2018-10-17T08:32:42.981Z,25.97
2018-10-17T08:35:13.195Z,20.17
2018-10-17T08:37:43.369Z,18.67
2018-10-17T08:40:12.741Z,17.37
2018-10-17T08:42:42.360Z,13.83
2018-10-17T08:45:12.138Z,20.87
2018-10-17T08:47:41.606Z,17.80
2018-10-17T08:50:11.245Z,24.97
2018-10-17T08:52:40.972Z,16.83
2018-10-17T08:55:10.756Z,16.20
2018-10-17T08:57:40.632Z,20.07
2018-10-17T09:00:10.503Z,15.87
2018-10-17T09:02:40.168Z,17.40
2018-10-17T09:05:09.872Z,15.28
2018-10-17T09:07:40.116Z,19.85
2018-10-17T09:10:10.105Z,11.48
2018-10-17T09:12:40.092Z,17.52
2018-10-17T09:15:10.404Z,17.62
2018-10-17T09:17:40.199Z,18.85
2018-10-17T09:20:11.025Z,15.98
2018-10-17T09:22:40.824Z,18.70
2018-10-17T09:25:10.545Z,14.87
2018-10-17T09:27:40.542Z,13.50
2018-10-17T09:30:11.639Z,15.53
2018-10-17T09:32:41.391Z,13.37
2018-10-17T09:35:12.249Z,16.50
2018-10-17T09:37:41.736Z,15.63
2018-10-17T09:40:11.863Z,10.47
2018-10-17T09:42:41.831Z,12.53
2018-10-17T09:45:11.945Z,12.87
2018-10-17T09:47:41.660Z,11.47
2018-10-17T09:50:11.587Z,9.77
2018-10-17T09:52:41.320Z,11.20
2018-10-17T09:55:10.911Z,10.07
2018-10-17T09:57:40.531Z,12.13
2018-10-17T10:00:15.610Z,13.83
2018-10-17T10:02:45.165Z,11.20
2018-10-17T10:05:14.857Z,11.00
2018-10-17T10:07:44.600Z,8.43
2018-10-17T10:10:14.253Z,7.77
2018-10-17T10:12:43.856Z,12.50
2018-10-17T10:15:13.631Z,8.03
2018-10-17T10:17:43.423Z,9.87
2018-10-17T10:20:13.091Z,10.88
2018-10-17T10:22:42.794Z,14.23
2018-10-17T10:25:12.547Z,10.34
2018-10-17T10:27:42.226Z,14.60
2018-10-17T10:30:11.987Z,14.00
2018-10-17T10:32:41.498Z,11.90
2018-10-17T10:35:12.206Z,9.13
2018-10-17T10:37:41.796Z,14.30
2018-10-17T10:40:11.561Z,12.53
2018-10-17T10:42:41.128Z,10.97
2018-10-17T10:45:11.025Z,9.77
2018-10-17T10:47:40.437Z,10.53
2018-10-17T10:50:10.996Z,10.43
2018-10-17T10:52:40.694Z,8.97
2018-10-17T10:55:10.350Z,10.90
2018-10-17T10:57:40.056Z,10.45
2018-10-17T11:00:09.932Z,9.30
2018-10-17T11:02:39.802Z,11.28
2018-10-17T11:05:09.740Z,8.80
2018-10-17T11:07:39.567Z,10.00
2018-10-17T11:10:09.423Z,11.07
2018-10-17T11:12:39.001Z,13.07
2018-10-17T11:15:09.415Z,14.47
2018-10-17T11:17:39.122Z,10.83
2018-10-17T11:20:09.672Z,15.18
2018-10-17T11:22:39.322Z,9.27
2018-10-17T11:25:09.915Z,12.87
2018-10-17T11:27:39.462Z,11.17
2018-10-17T11:30:10.997Z,9.33
2018-10-17T11:32:41.026Z,9.58
2018-10-17T11:35:11.848Z,9.00
2018-10-17T11:37:41.540Z,7.33
2018-10-17T11:40:11.208Z,10.37
2018-10-17T11:42:41.100Z,9.57
2018-10-17T11:45:10.773Z,11.77
2018-10-17T11:47:40.637Z,12.10
2018-10-17T11:50:11.291Z,12.98
2018-10-17T11:52:41.122Z,11.83
2018-10-17T11:55:10.771Z,10.00
2018-10-17T11:57:40.420Z,9.50
2018-10-17T12:00:12.486Z,20.57
2018-10-17T12:02:42.161Z,14.93
2018-10-17T12:05:14.050Z,12.83
2018-10-17T12:07:43.685Z,12.30
2018-10-17T12:10:13.341Z,11.53
2018-10-17T12:12:43.209Z,14.53
2018-10-17T12:15:14.591Z,10.00
2018-10-17T12:17:44.176Z,14.63
2018-10-17T12:20:15.031Z,11.20
2018-10-17T12:22:45.395Z,15.63
2018-10-17T12:25:15.605Z,11.07
2018-10-17T12:27:45.415Z,11.83
2018-10-17T12:30:15.911Z,13.27
2018-10-17T12:32:45.804Z,12.60
2018-10-17T12:35:15.782Z,11.70
2018-10-17T12:37:46.630Z,26.27
2018-10-17T12:40:17.763Z,19.45
2018-10-17T12:42:48.467Z,13.23
2018-10-17T12:45:18.199Z,14.17
2018-10-17T12:47:47.872Z,11.53
2018-10-17T12:50:17.564Z,12.37
2018-10-17T12:52:47.189Z,18.80
2018-10-17T12:55:17.237Z,10.93
2018-10-17T12:57:46.982Z,12.60
2018-10-17T13:00:16.857Z,12.70
2018-10-17T13:02:46.467Z,9.10
2018-10-17T13:05:16.186Z,13.23
2018-10-17T13:07:45.937Z,15.57
2018-10-17T13:10:15.505Z,9.27
2018-10-17T13:12:45.135Z,15.77
2018-10-17T13:15:15.146Z,14.10
2018-10-17T13:17:45.839Z,14.10
2018-10-17T13:20:15.745Z,14.68
2018-10-17T13:22:45.531Z,13.83
2018-10-17T13:25:15.358Z,12.77
2018-10-17T13:27:44.906Z,16.13
2018-10-17T13:30:14.519Z,11.67
2018-10-17T13:32:44.297Z,15.50
2018-10-17T13:35:15.018Z,12.77
2018-10-17T13:37:44.605Z,10.60
2018-10-17T13:40:15.007Z,16.63
2018-10-17T13:42:44.905Z,20.17
2018-10-17T13:45:14.477Z,23.63
2018-10-17T13:47:44.137Z,17.93
2018-10-17T13:50:13.812Z,11.83
2018-10-17T13:52:43.615Z,13.20
2018-10-17T13:55:13.431Z,13.63
2018-10-17T13:57:43.115Z,15.03
2018-10-17T14:00:13.591Z,20.93
2018-10-17T14:02:44.662Z,11.97
2018-10-17T14:05:14.783Z,17.17
2018-10-17T14:07:44.356Z,16.30
2018-10-17T14:10:14.125Z,16.12
2018-10-17T14:12:43.859Z,11.03
2018-10-17T14:15:13.729Z,19.00
2018-10-17T14:17:43.337Z,25.97
2018-10-17T14:20:12.963Z,20.17
2018-10-17T14:22:42.791Z,19.98
2018-10-17T14:25:12.505Z,15.35
2018-10-17T14:27:42.241Z,18.47
2018-10-17T14:30:12.222Z,19.23
2018-10-17T14:32:41.815Z,16.67
2018-10-17T14:40:09.770Z,12.83
2018-10-17T14:42:39.401Z,18.00
2018-10-17T14:45:10.721Z,14.30
2018-10-17T14:47:40.654Z,13.27
2018-10-17T14:50:10.463Z,12.30
2018-10-17T14:52:40.396Z,15.77
2018-10-17T14:55:10.416Z,18.23
2018-10-17T14:57:40.008Z,11.78
2018-10-17T15:00:13.827Z,19.20
2018-10-17T15:02:44.107Z,14.13
2018-10-17T15:05:13.913Z,15.60
2018-10-17T15:07:44.088Z,12.13
2018-10-17T15:10:13.945Z,18.32
2018-10-17T15:12:43.555Z,18.27
2018-10-17T15:15:13.863Z,16.10
2018-10-17T15:17:43.501Z,12.60
2018-10-17T15:20:13.466Z,11.50
2018-10-17T15:22:43.117Z,12.75
2018-10-17T15:25:12.780Z,14.13
2018-10-17T15:27:42.447Z,13.98
2018-10-17T15:30:12.265Z,12.68
2018-10-17T15:32:42.266Z,14.77
2018-10-17T15:35:12.077Z,16.27
2018-10-17T15:37:42.092Z,14.53
2018-10-17T15:40:11.971Z,18.27
2018-10-17T15:42:41.722Z,19.27
2018-10-17T15:45:11.765Z,19.73
2018-10-17T15:47:44.403Z,12.17
2018-10-17T15:50:14.306Z,12.10
2018-10-17T15:52:45.302Z,13.57
2018-10-17T15:55:16.749Z,16.33
2018-10-17T15:57:47.568Z,13.07
2018-10-17T16:05:14.947Z,16.07
2018-10-17T16:07:44.657Z,13.10
2018-10-17T16:10:14.413Z,18.73
2018-10-17T16:12:44.290Z,17.90
2018-10-17T16:15:14.027Z,14.97
2018-10-17T16:17:43.673Z,16.57
2018-10-17T16:20:13.632Z,18.50
2018-10-17T16:22:43.544Z,24.27
2018-10-17T16:25:13.403Z,36.47
2018-10-17T16:27:43.218Z,28.80
2018-10-17T16:30:13.254Z,19.10
2018-10-17T16:32:42.958Z,19.40
2018-10-17T16:35:12.754Z,15.90
2018-10-17T16:37:42.447Z,17.17
2018-10-17T16:40:12.160Z,16.00
2018-10-17T16:42:42.052Z,16.53
2018-10-17T16:45:12.469Z,20.27
2018-10-17T16:47:42.440Z,21.15
2018-10-17T16:50:12.142Z,24.83
2018-10-17T16:52:41.826Z,20.63
2018-10-17T16:55:11.508Z,19.27
2018-10-17T16:57:41.252Z,22.07
2018-10-17T17:00:11.859Z,23.02
2018-10-17T17:02:41.724Z,26.50
2018-10-17T17:05:14.522Z,29.17
2018-10-17T17:07:44.243Z,33.20
2018-10-17T17:10:15.173Z,50.57
2018-10-17T17:12:45.182Z,66.40
2018-10-17T17:15:15.187Z,45.37
2018-10-17T17:17:45.803Z,35.35
2018-10-17T17:20:15.734Z,31.02
2018-10-17T17:22:45.653Z,28.50
2018-10-17T17:25:15.662Z,24.50
2018-10-17T17:27:45.558Z,20.97
2018-10-17T17:30:17.402Z,22.25
2018-10-17T17:32:48.109Z,19.48
2018-10-17T17:37:49.163Z,18.70
2018-10-17T17:40:19.154Z,23.40
2018-10-17T17:42:48.752Z,18.07
2018-10-17T17:45:18.655Z,17.37
2018-10-17T17:47:48.463Z,23.35
2018-10-17T17:50:19.301Z,19.27
2018-10-17T17:52:49.358Z,20.73
2018-10-17T17:55:19.128Z,26.20
2018-10-17T17:57:48.910Z,26.47
2018-10-17T18:00:18.659Z,30.03
2018-10-17T18:02:48.474Z,27.90
2018-10-17T18:05:18.329Z,22.33
2018-10-17T18:07:48.129Z,20.93
2018-10-17T18:10:17.963Z,23.50
2018-10-17T18:12:47.988Z,22.10
2018-10-17T18:15:18.025Z,23.55
2018-10-17T18:17:47.874Z,23.50
2018-10-17T18:20:17.777Z,27.93
2018-10-17T18:22:47.690Z,33.70
2018-10-17T18:25:17.534Z,49.53
2018-10-17T18:27:48.075Z,45.48
2018-10-17T18:30:17.864Z,28.30
2018-10-17T18:32:48.036Z,33.25
2018-10-17T18:35:18.030Z,35.57
2018-10-17T18:37:47.823Z,33.13
2018-10-17T18:40:17.783Z,40.87
2018-10-17T18:42:47.447Z,45.17
2018-10-17T18:45:17.255Z,43.37
2018-10-17T18:47:47.115Z,49.13
2018-10-17T18:50:16.975Z,40.33
2018-10-17T18:52:46.684Z,33.40
2018-10-17T18:55:16.528Z,42.03
2018-10-17T18:57:46.218Z,40.67
2018-10-17T19:00:16.018Z,42.03
2018-10-17T19:02:45.719Z,46.53
2018-10-17T19:05:15.577Z,41.33
2018-10-17T19:07:45.219Z,50.33
2018-10-17T19:10:15.024Z,43.37
2018-10-17T19:12:44.923Z,43.75
2018-10-17T19:15:14.976Z,48.10
2018-10-17T19:17:44.994Z,45.97
2018-10-17T19:20:14.997Z,47.70
2018-10-17T19:22:44.995Z,45.48
2018-10-17T19:25:14.866Z,42.33
2018-10-17T19:27:44.590Z,44.48
2018-10-17T19:30:14.530Z,40.80
2018-10-17T19:32:44.300Z,47.93
2018-10-17T19:35:14.262Z,61.45
2018-10-17T19:37:44.173Z,60.30
2018-10-17T19:40:14.200Z,53.07
2018-10-17T19:42:43.970Z,48.73
2018-10-17T19:45:14.701Z,47.30
2018-10-17T19:47:44.380Z,47.00
2018-10-17T19:50:14.352Z,46.57
2018-10-17T19:52:44.074Z,44.37
2018-10-17T19:55:13.687Z,45.20
2018-10-17T19:57:43.508Z,42.67
2018-10-17T20:00:14.761Z,46.50
2018-10-17T20:02:44.739Z,45.27
2018-10-17T20:05:14.644Z,43.17
2018-10-17T20:07:44.498Z,42.97
2018-10-17T20:10:14.288Z,42.48
2018-10-17T20:12:44.036Z,55.00
2018-10-17T20:15:13.872Z,45.98
2018-10-17T20:17:43.610Z,50.47
2018-10-17T20:20:13.413Z,55.75
2018-10-17T20:22:43.281Z,50.43
2018-10-17T20:25:13.456Z,46.10
2018-10-17T20:27:43.209Z,45.30
2018-10-17T20:30:12.984Z,42.33
2018-10-17T20:32:42.759Z,43.10
2018-10-17T20:35:12.421Z,42.97
2018-10-17T20:37:42.135Z,47.30
2018-10-17T20:40:12.148Z,45.10
2018-10-17T20:42:43.146Z,45.13
2018-10-17T20:45:13.132Z,49.70
2018-10-17T20:47:43.121Z,46.80
2018-10-17T20:50:13.087Z,41.63
2018-10-17T20:52:42.812Z,41.53
2018-10-17T20:55:12.561Z,47.17
2018-10-17T20:57:42.263Z,40.50
2018-10-17T21:00:12.323Z,44.17
2018-10-17T21:02:42.203Z,48.67
2018-10-17T21:05:11.974Z,50.33
2018-10-17T21:07:41.757Z,48.70
2018-10-17T21:10:11.437Z,53.90
2018-10-17T21:12:41.284Z,46.63
2018-10-17T21:15:11.106Z,48.10
2018-10-17T21:17:41.215Z,44.33
2018-10-17T21:20:10.921Z,45.87
2018-10-17T21:22:40.718Z,48.65
2018-10-17T21:25:10.600Z,45.30
2018-10-17T21:27:40.524Z,44.30
2018-10-17T21:30:11.410Z,51.15
2018-10-17T21:32:41.257Z,54.48
2018-10-17T21:35:11.039Z,57.23
2018-10-17T21:37:40.688Z,72.90
2018-10-17T21:40:09.882Z,60.03
2018-10-17T21:42:39.575Z,48.83
2018-10-17T21:45:09.318Z,50.10
2018-10-17T21:47:39.113Z,52.07
2018-10-17T21:50:08.838Z,48.50
2018-10-17T21:52:38.552Z,51.10
2018-10-17T21:55:08.320Z,57.67
2018-10-17T21:57:38.343Z,50.40
2018-10-17T22:00:10.235Z,49.47
2018-10-17T22:02:40.604Z,50.98
2018-10-17T22:05:11.008Z,50.65
2018-10-17T22:07:40.716Z,47.60
2018-10-17T22:10:10.433Z,46.90
2018-10-17T22:12:40.107Z,48.30
2018-10-17T22:15:10.488Z,47.45
2018-10-17T22:17:40.112Z,48.02
2018-10-17T22:20:10.097Z,51.57
2018-10-17T22:22:39.764Z,45.40
2018-10-17T22:25:09.452Z,49.65
2018-10-17T22:27:39.122Z,48.20
2018-10-17T22:30:08.909Z,45.23
2018-10-17T22:32:38.464Z,49.10
2018-10-17T22:35:08.338Z,51.07
2018-10-17T22:37:37.922Z,57.13
2018-10-17T22:40:10.419Z,54.67
2018-10-17T22:42:40.208Z,54.50
2018-10-17T22:45:09.913Z,45.47
2018-10-17T22:47:39.573Z,66.40
2018-10-17T22:50:10.491Z,95.00
2018-10-17T22:52:40.414Z,57.27
2018-10-17T22:55:10.488Z,54.80
2018-10-17T22:57:40.412Z,60.63
2018-10-17T23:00:10.703Z,63.83
2018-10-17T23:02:40.479Z,53.77
2018-10-17T23:05:10.220Z,52.80
2018-10-17T23:07:39.874Z,60.70
2018-10-17T23:10:09.527Z,50.17
2018-10-17T23:12:39.371Z,50.07
2018-10-17T23:15:15.903Z,54.00
2018-10-17T23:17:45.472Z,48.10
2018-10-17T23:20:15.213Z,50.07
2018-10-17T23:22:44.785Z,51.07
2018-10-17T23:25:14.552Z,45.28
2018-10-17T23:27:44.364Z,47.23
2018-10-17T23:30:14.015Z,50.47
2018-10-17T23:32:43.603Z,45.53
2018-10-17T23:35:13.450Z,47.40
2018-10-17T23:37:42.999Z,48.53
2018-10-17T23:40:12.643Z,49.40
2018-10-17T23:42:42.380Z,53.97
2018-10-17T23:45:12.959Z,52.98
2018-10-17T23:47:42.824Z,56.67
2018-10-17T23:50:12.410Z,52.67
2018-10-17T23:52:42.151Z,50.97
2018-10-17T23:55:11.770Z,49.40
2018-10-17T23:57:41.459Z,48.98
